sensor_id;sensor_type;location;lat;lon;timestamp;P1;durP1;ratioP1;P2;durP2;ratioP2
2546;SDS011;1283;47.982;7.834;2023-08-21T00:00:28;18.10;;;8.95;;
2546;SDS011;1283;47.982;7.834;2023-08-21T00:02:56;15.23;;;9.57;;
2546;SDS011;1283;47.982;7.834;2023-08-21T00:05:23;13.88;;;10.10;;
2546;SDS011;1283;47.982;7.834;2023-08-21T00:07:49;18.73;;;10.30;;
2546;SDS011;1283;47.982;7.834;2023-08-21T00:10:16;19.52;;;10.10;;
2546;SDS011;1283;47.982;7.834;2023-08-21T00:12:43;17.17;;;11.02;;
2546;SDS011;1283;47.982;7.834;2023-08-21T00:15:09;14.52;;;10.93;;
2546;SDS011;1283;47.982;7.834;2023-08-21T00:17:36;18.38;;;10.05;;
2546;SDS011;1283;47.982;7.834;2023-08-21T00:20:04;16.02;;;10.93;;
2546;SDS011;1283;47.982;7.834;2023-08-21T00:22:34;15.90;;;10.77;;
2546;SDS011;1283;47.982;7.834;2023-08-21T00:25:01;18.88;;;10.38;;
2546;SDS011;1283;47.982;7.834;2023-08-21T00:27:27;15.48;;;10.30;;
2546;SDS011;1283;47.982;7.834;2023-08-21T00:29:54;18.13;;;10.13;;
2546;SDS011;1283;47.982;7.834;2023-08-21T00:32:20;12.35;;;9.90;;
2546;SDS011;1283;47.982;7.834;2023-08-21T00:34:46;14.27;;;10.52;;
2546;SDS011;1283;47.982;7.834;2023-08-21T00:37:14;21.23;;;10.07;;
2546;SDS011;1283;47.982;7.834;2023-08-21T00:39:41;16.35;;;9.70;;
2546;SDS011;1283;47.982;7.834;2023-08-21T00:42:07;15.57;;;10.25;;
2546;SDS011;1283;47.982;7.834;2023-08-21T00:44:34;18.15;;;11.05;;
2546;SDS011;1283;47.982;7.834;2023-08-21T00:47:00;16.83;;;10.25;;
2546;SDS011;1283;47.982;7.834;2023-08-21T00:49:27;16.73;;;10.45;;
2546;SDS011;1283;47.982;7.834;2023-08-21T00:51:53;16.77;;;10.27;;
2546;SDS011;1283;47.982;7.834;2023-08-21T00:54:21;22.33;;;8.85;;
2546;SDS011;1283;47.982;7.834;2023-08-21T00:56:47;17.23;;;9.65;;
2546;SDS011;1283;47.982;7.834;2023-08-21T00:59:17;15.15;;;8.57;;
2546;SDS011;1283;47.982;7.834;2023-08-21T01:01:44;12.65;;;9.00;;
2546;SDS011;1283;47.982;7.834;2023-08-21T01:04:10;10.60;;;8.55;;
2546;SDS011;1283;47.982;7.834;2023-08-21T01:06:37;11.02;;;8.30;;
2546;SDS011;1283;47.982;7.834;2023-08-21T01:09:04;15.60;;;9.25;;
2546;SDS011;1283;47.982;7.834;2023-08-21T01:11:39;11.15;;;9.25;;
2546;SDS011;1283;47.982;7.834;2023-08-21T01:14:10;15.13;;;9.70;;
2546;SDS011;1283;47.982;7.834;2023-08-21T01:16:40;19.90;;;9.30;;
2546;SDS011;1283;47.982;7.834;2023-08-21T01:19:09;12.50;;;9.50;;
2546;SDS011;1283;47.982;7.834;2023-08-21T01:21:41;15.25;;;9.73;;
2546;SDS011;1283;47.982;7.834;2023-08-21T01:24:09;14.70;;;8.57;;
2546;SDS011;1283;47.982;7.834;2023-08-21T01:26:35;20.33;;;9.68;;
2546;SDS011;1283;47.982;7.834;2023-08-21T01:29:01;14.50;;;9.73;;
2546;SDS011;1283;47.982;7.834;2023-08-21T01:31:31;12.13;;;8.70;;
2546;SDS011;1283;47.982;7.834;2023-08-21T01:34:03;11.48;;;8.77;;
2546;SDS011;1283;47.982;7.834;2023-08-21T01:36:31;21.42;;;10.07;;
2546;SDS011;1283;47.982;7.834;2023-08-21T01:38:58;16.85;;;9.55;;
2546;SDS011;1283;47.982;7.834;2023-08-21T01:41:26;17.25;;;8.88;;
2546;SDS011;1283;47.982;7.834;2023-08-21T01:43:52;15.38;;;8.95;;
2546;SDS011;1283;47.982;7.834;2023-08-21T01:46:19;18.65;;;9.77;;
2546;SDS011;1283;47.982;7.834;2023-08-21T01:48:45;23.50;;;8.57;;
2546;SDS011;1283;47.982;7.834;2023-08-21T01:51:11;14.88;;;9.23;;
2546;SDS011;1283;47.982;7.834;2023-08-21T01:53:38;12.07;;;9.05;;
2546;SDS011;1283;47.982;7.834;2023-08-21T01:56:04;20.58;;;9.20;;
2546;SDS011;1283;47.982;7.834;2023-08-21T01:58:32;12.93;;;9.35;;
2546;SDS011;1283;47.982;7.834;2023-08-21T02:00:58;13.25;;;9.48;;
2546;SDS011;1283;47.982;7.834;2023-08-21T02:03:25;14.40;;;9.13;;
2546;SDS011;1283;47.982;7.834;2023-08-21T02:05:54;19.48;;;10.18;;
2546;SDS011;1283;47.982;7.834;2023-08-21T02:08:22;12.50;;;9.18;;
2546;SDS011;1283;47.982;7.834;2023-08-21T02:10:48;17.73;;;8.85;;
2546;SDS011;1283;47.982;7.834;2023-08-21T02:13:15;20.08;;;9.93;;
2546;SDS011;1283;47.982;7.834;2023-08-21T02:15:43;15.07;;;8.93;;
2546;SDS011;1283;47.982;7.834;2023-08-21T02:18:09;16.45;;;10.55;;
2546;SDS011;1283;47.982;7.834;2023-08-21T02:20:36;14.27;;;9.35;;
2546;SDS011;1283;47.982;7.834;2023-08-21T02:23:02;16.02;;;9.27;;
2546;SDS011;1283;47.982;7.834;2023-08-21T02:25:29;13.10;;;9.00;;
2546;SDS011;1283;47.982;7.834;2023-08-21T02:27:55;21.13;;;10.52;;
2546;SDS011;1283;47.982;7.834;2023-08-21T02:30:22;15.20;;;9.85;;
2546;SDS011;1283;47.982;7.834;2023-08-21T02:32:51;15.35;;;8.43;;
2546;SDS011;1283;47.982;7.834;2023-08-21T02:35:18;16.73;;;8.93;;
2546;SDS011;1283;47.982;7.834;2023-08-21T02:37:44;13.18;;;9.38;;
2546;SDS011;1283;47.982;7.834;2023-08-21T02:40:10;16.08;;;9.30;;
2546;SDS011;1283;47.982;7.834;2023-08-21T02:42:37;13.77;;;8.82;;
2546;SDS011;1283;47.982;7.834;2023-08-21T02:45:03;17.30;;;9.32;;
2546;SDS011;1283;47.982;7.834;2023-08-21T02:47:33;16.63;;;10.60;;
2546;SDS011;1283;47.982;7.834;2023-08-21T02:50:02;17.88;;;10.57;;
2546;SDS011;1283;47.982;7.834;2023-08-21T02:52:29;14.32;;;9.85;;
2546;SDS011;1283;47.982;7.834;2023-08-21T02:54:55;16.70;;;9.80;;
2546;SDS011;1283;47.982;7.834;2023-08-21T02:57:22;18.25;;;9.82;;
2546;SDS011;1283;47.982;7.834;2023-08-21T02:59:49;16.20;;;9.10;;
2546;SDS011;1283;47.982;7.834;2023-08-21T03:02:15;15.88;;;9.02;;
2546;SDS011;1283;47.982;7.834;2023-08-21T03:04:42;16.90;;;9.45;;
2546;SDS011;1283;47.982;7.834;2023-08-21T03:07:10;13.52;;;9.07;;
2546;SDS011;1283;47.982;7.834;2023-08-21T03:09:37;14.68;;;8.82;;
2546;SDS011;1283;47.982;7.834;2023-08-21T03:12:03;17.08;;;9.93;;
2546;SDS011;1283;47.982;7.834;2023-08-21T03:14:30;18.15;;;9.30;;
2546;SDS011;1283;47.982;7.834;2023-08-21T03:16:57;15.15;;;9.38;;
2546;SDS011;1283;47.982;7.834;2023-08-21T03:19:23;17.17;;;9.13;;
2546;SDS011;1283;47.982;7.834;2023-08-21T03:21:50;14.93;;;9.15;;
2546;SDS011;1283;47.982;7.834;2023-08-21T03:24:18;18.92;;;10.18;;
2546;SDS011;1283;47.982;7.834;2023-08-21T03:26:44;18.25;;;10.18;;
2546;SDS011;1283;47.982;7.834;2023-08-21T03:29:11;10.77;;;8.88;;
2546;SDS011;1283;47.982;7.834;2023-08-21T03:31:37;12.07;;;9.18;;
2546;SDS011;1283;47.982;7.834;2023-08-21T03:34:03;11.65;;;8.85;;
2546;SDS011;1283;47.982;7.834;2023-08-21T03:36:30;13.88;;;9.68;;
2546;SDS011;1283;47.982;7.834;2023-08-21T03:38:56;12.35;;;8.82;;
2546;SDS011;1283;47.982;7.834;2023-08-21T03:41:24;13.93;;;9.80;;
2546;SDS011;1283;47.982;7.834;2023-08-21T03:43:51;12.52;;;9.25;;
2546;SDS011;1283;47.982;7.834;2023-08-21T03:46:18;19.48;;;9.93;;
2546;SDS011;1283;47.982;7.834;2023-08-21T03:48:44;14.10;;;9.70;;
2546;SDS011;1283;47.982;7.834;2023-08-21T03:51:11;17.30;;;10.05;;
2546;SDS011;1283;47.982;7.834;2023-08-21T03:53:37;17.50;;;9.52;;
2546;SDS011;1283;47.982;7.834;2023-08-21T03:56:03;12.18;;;9.75;;
2546;SDS011;1283;47.982;7.834;2023-08-21T03:58:31;19.38;;;10.15;;
2546;SDS011;1283;47.982;7.834;2023-08-21T04:00:58;15.70;;;9.73;;
2546;SDS011;1283;47.982;7.834;2023-08-21T04:03:24;16.98;;;9.60;;
2546;SDS011;1283;47.982;7.834;2023-08-21T04:05:52;17.15;;;10.43;;
2546;SDS011;1283;47.982;7.834;2023-08-21T04:08:19;15.10;;;10.88;;
2546;SDS011;1283;47.982;7.834;2023-08-21T04:10:45;13.57;;;10.20;;
2546;SDS011;1283;47.982;7.834;2023-08-21T04:13:12;16.58;;;10.02;;
2546;SDS011;1283;47.982;7.834;2023-08-21T04:15:43;16.13;;;10.02;;
2546;SDS011;1283;47.982;7.834;2023-08-21T04:18:10;15.25;;;11.15;;
2546;SDS011;1283;47.982;7.834;2023-08-21T04:20:37;16.23;;;9.95;;
2546;SDS011;1283;47.982;7.834;2023-08-21T04:23:03;14.20;;;9.73;;
2546;SDS011;1283;47.982;7.834;2023-08-21T04:25:29;13.35;;;9.38;;
2546;SDS011;1283;47.982;7.834;2023-08-21T04:27:56;10.80;;;9.20;;
2546;SDS011;1283;47.982;7.834;2023-08-21T04:30:22;20.20;;;9.27;;
2546;SDS011;1283;47.982;7.834;2023-08-21T04:32:50;17.38;;;9.43;;
2546;SDS011;1283;47.982;7.834;2023-08-21T04:35:16;15.05;;;10.30;;
2546;SDS011;1283;47.982;7.834;2023-08-21T04:37:43;15.05;;;9.98;;
2546;SDS011;1283;47.982;7.834;2023-08-21T04:40:12;19.85;;;10.65;;
2546;SDS011;1283;47.982;7.834;2023-08-21T04:42:38;12.40;;;10.63;;
2546;SDS011;1283;47.982;7.834;2023-08-21T04:45:05;16.95;;;10.32;;
2546;SDS011;1283;47.982;7.834;2023-08-21T04:47:32;15.77;;;9.88;;
2546;SDS011;1283;47.982;7.834;2023-08-21T04:50:00;17.40;;;10.25;;
2546;SDS011;1283;47.982;7.834;2023-08-21T04:52:27;12.50;;;9.88;;
2546;SDS011;1283;47.982;7.834;2023-08-21T04:54:53;13.75;;;10.00;;
2546;SDS011;1283;47.982;7.834;2023-08-21T04:57:19;16.48;;;9.93;;
2546;SDS011;1283;47.982;7.834;2023-08-21T04:59:46;22.00;;;10.45;;
2546;SDS011;1283;47.982;7.834;2023-08-21T05:02:13;18.15;;;10.05;;
2546;SDS011;1283;47.982;7.834;2023-08-21T05:04:39;14.80;;;9.40;;
2546;SDS011;1283;47.982;7.834;2023-08-21T05:07:07;12.32;;;9.27;;
2546;SDS011;1283;47.982;7.834;2023-08-21T05:09:34;15.32;;;9.55;;
2546;SDS011;1283;47.982;7.834;2023-08-21T05:12:00;16.92;;;9.80;;
2546;SDS011;1283;47.982;7.834;2023-08-21T05:14:26;17.77;;;9.57;;
2546;SDS011;1283;47.982;7.834;2023-08-21T05:16:53;15.90;;;9.82;;
2546;SDS011;1283;47.982;7.834;2023-08-21T05:19:19;14.02;;;9.45;;
2546;SDS011;1283;47.982;7.834;2023-08-21T05:21:46;12.48;;;9.63;;
2546;SDS011;1283;47.982;7.834;2023-08-21T05:24:14;15.68;;;9.63;;
2546;SDS011;1283;47.982;7.834;2023-08-21T05:26:40;17.20;;;9.88;;
2546;SDS011;1283;47.982;7.834;2023-08-21T05:29:07;12.82;;;10.05;;
2546;SDS011;1283;47.982;7.834;2023-08-21T05:31:34;18.77;;;9.30;;
2546;SDS011;1283;47.982;7.834;2023-08-21T05:34:00;12.48;;;8.73;;
2546;SDS011;1283;47.982;7.834;2023-08-21T05:36:27;16.35;;;7.97;;
2546;SDS011;1283;47.982;7.834;2023-08-21T05:38:53;15.50;;;8.10;;
2546;SDS011;1283;47.982;7.834;2023-08-21T05:41:21;14.63;;;8.00;;
2546;SDS011;1283;47.982;7.834;2023-08-21T05:43:47;9.60;;;7.68;;
2546;SDS011;1283;47.982;7.834;2023-08-21T05:46:14;15.07;;;7.68;;
2546;SDS011;1283;47.982;7.834;2023-08-21T05:48:40;14.10;;;8.05;;
2546;SDS011;1283;47.982;7.834;2023-08-21T05:51:07;9.93;;;7.90;;
2546;SDS011;1283;47.982;7.834;2023-08-21T05:53:33;18.30;;;7.50;;
2546;SDS011;1283;47.982;7.834;2023-08-21T05:55:59;15.57;;;7.50;;
2546;SDS011;1283;47.982;7.834;2023-08-21T05:58:27;11.98;;;6.53;;
2546;SDS011;1283;47.982;7.834;2023-08-21T06:00:56;12.65;;;6.43;;
2546;SDS011;1283;47.982;7.834;2023-08-21T06:03:23;9.20;;;6.53;;
2546;SDS011;1283;47.982;7.834;2023-08-21T06:05:49;14.95;;;6.90;;
2546;SDS011;1283;47.982;7.834;2023-08-21T06:08:15;11.85;;;7.32;;
2546;SDS011;1283;47.982;7.834;2023-08-21T06:10:43;17.50;;;7.65;;
2546;SDS011;1283;47.982;7.834;2023-08-21T06:13:09;15.02;;;6.72;;
2546;SDS011;1283;47.982;7.834;2023-08-21T06:15:37;12.95;;;6.70;;
2546;SDS011;1283;47.982;7.834;2023-08-21T06:18:03;10.88;;;6.63;;
2546;SDS011;1283;47.982;7.834;2023-08-21T06:20:30;18.70;;;6.72;;
2546;SDS011;1283;47.982;7.834;2023-08-21T06:22:56;13.15;;;7.57;;
2546;SDS011;1283;47.982;7.834;2023-08-21T06:25:23;9.45;;;6.15;;
2546;SDS011;1283;47.982;7.834;2023-08-21T06:27:49;17.02;;;6.63;;
2546;SDS011;1283;47.982;7.834;2023-08-21T06:30:16;10.50;;;6.38;;
2546;SDS011;1283;47.982;7.834;2023-08-21T06:32:44;12.00;;;6.68;;
2546;SDS011;1283;47.982;7.834;2023-08-21T06:35:10;9.02;;;6.47;;
2546;SDS011;1283;47.982;7.834;2023-08-21T06:37:37;12.05;;;6.90;;
2546;SDS011;1283;47.982;7.834;2023-08-21T06:40:04;14.88;;;7.50;;
2546;SDS011;1283;47.982;7.834;2023-08-21T06:42:31;10.55;;;7.25;;
2546;SDS011;1283;47.982;7.834;2023-08-21T06:44:58;12.02;;;7.38;;
2546;SDS011;1283;47.982;7.834;2023-08-21T06:47:24;15.68;;;7.30;;
2546;SDS011;1283;47.982;7.834;2023-08-21T06:49:52;15.52;;;6.78;;
2546;SDS011;1283;47.982;7.834;2023-08-21T06:52:19;11.60;;;6.85;;
2546;SDS011;1283;47.982;7.834;2023-08-21T06:54:45;11.60;;;7.35;;
2546;SDS011;1283;47.982;7.834;2023-08-21T06:57:11;9.77;;;7.40;;
2546;SDS011;1283;47.982;7.834;2023-08-21T06:59:38;12.02;;;7.25;;
2546;SDS011;1283;47.982;7.834;2023-08-21T07:02:05;10.40;;;7.05;;
2546;SDS011;1283;47.982;7.834;2023-08-21T07:04:32;12.85;;;7.53;;
2546;SDS011;1283;47.982;7.834;2023-08-21T07:07:00;18.63;;;7.32;;
2546;SDS011;1283;47.982;7.834;2023-08-21T07:09:26;10.50;;;6.85;;
2546;SDS011;1283;47.982;7.834;2023-08-21T07:11:53;9.27;;;6.25;;
2546;SDS011;1283;47.982;7.834;2023-08-21T07:14:20;17.00;;;7.15;;
2546;SDS011;1283;47.982;7.834;2023-08-21T07:16:46;12.60;;;6.97;;
2546;SDS011;1283;47.982;7.834;2023-08-21T07:19:13;11.90;;;7.00;;
2546;SDS011;1283;47.982;7.834;2023-08-21T07:21:39;15.65;;;7.25;;
2546;SDS011;1283;47.982;7.834;2023-08-21T07:24:07;9.75;;;6.82;;
2546;SDS011;1283;47.982;7.834;2023-08-21T07:26:33;14.75;;;6.38;;
2546;SDS011;1283;47.982;7.834;2023-08-21T07:29:00;9.43;;;6.68;;
2546;SDS011;1283;47.982;7.834;2023-08-21T07:31:29;10.23;;;6.50;;
2546;SDS011;1283;47.982;7.834;2023-08-21T07:33:56;9.52;;;6.78;;
2546;SDS011;1283;47.982;7.834;2023-08-21T07:36:22;9.30;;;6.05;;
2546;SDS011;1283;47.982;7.834;2023-08-21T07:38:49;9.75;;;6.53;;
2546;SDS011;1283;47.982;7.834;2023-08-21T07:41:17;12.98;;;7.20;;
2546;SDS011;1283;47.982;7.834;2023-08-21T07:43:43;12.70;;;6.90;;
2546;SDS011;1283;47.982;7.834;2023-08-21T07:46:10;12.20;;;7.47;;
2546;SDS011;1283;47.982;7.834;2023-08-21T07:48:40;9.68;;;6.38;;
2546;SDS011;1283;47.982;7.834;2023-08-21T07:51:07;13.77;;;7.00;;
2546;SDS011;1283;47.982;7.834;2023-08-21T07:53:33;13.65;;;6.93;;
2546;SDS011;1283;47.982;7.834;2023-08-21T07:56:00;13.20;;;6.97;;
2546;SDS011;1283;47.982;7.834;2023-08-21T07:58:30;10.13;;;6.85;;
2546;SDS011;1283;47.982;7.834;2023-08-21T08:00:57;16.25;;;6.85;;
2546;SDS011;1283;47.982;7.834;2023-08-21T08:03:23;12.10;;;7.03;;
2546;SDS011;1283;47.982;7.834;2023-08-21T08:05:50;13.88;;;7.30;;
2546;SDS011;1283;47.982;7.834;2023-08-21T08:08:17;17.10;;;7.60;;
2546;SDS011;1283;47.982;7.834;2023-08-21T08:10:43;13.80;;;7.80;;
2546;SDS011;1283;47.982;7.834;2023-08-21T08:13:10;12.32;;;6.57;;
2546;SDS011;1283;47.982;7.834;2023-08-21T08:15:38;13.23;;;7.60;;
2546;SDS011;1283;47.982;7.834;2023-08-21T08:18:04;12.43;;;7.28;;
2546;SDS011;1283;47.982;7.834;2023-08-21T08:20:32;10.82;;;7.05;;
2546;SDS011;1283;47.982;7.834;2023-08-21T08:22:58;12.77;;;7.25;;
2546;SDS011;1283;47.982;7.834;2023-08-21T08:25:25;11.70;;;7.43;;
2546;SDS011;1283;47.982;7.834;2023-08-21T08:27:51;10.90;;;6.85;;
2546;SDS011;1283;47.982;7.834;2023-08-21T08:30:18;14.95;;;7.47;;
2546;SDS011;1283;47.982;7.834;2023-08-21T08:32:46;11.85;;;6.90;;
2546;SDS011;1283;47.982;7.834;2023-08-21T08:35:13;11.27;;;7.13;;
2546;SDS011;1283;47.982;7.834;2023-08-21T08:37:40;17.48;;;7.28;;
2546;SDS011;1283;47.982;7.834;2023-08-21T08:40:07;19.10;;;7.07;;
2546;SDS011;1283;47.982;7.834;2023-08-21T08:42:34;30.98;;;7.50;;
2546;SDS011;1283;47.982;7.834;2023-08-21T08:45:02;10.45;;;6.90;;
2546;SDS011;1283;47.982;7.834;2023-08-21T08:47:30;12.55;;;6.65;;
2546;SDS011;1283;47.982;7.834;2023-08-21T08:49:59;12.98;;;6.90;;
2546;SDS011;1283;47.982;7.834;2023-08-21T08:52:28;11.27;;;6.93;;
2546;SDS011;1283;47.982;7.834;2023-08-21T08:54:56;13.93;;;6.47;;
2546;SDS011;1283;47.982;7.834;2023-08-21T08:57:23;13.73;;;6.95;;
2546;SDS011;1283;47.982;7.834;2023-08-21T08:59:50;10.75;;;7.32;;
2546;SDS011;1283;47.982;7.834;2023-08-21T09:02:16;12.70;;;7.07;;
2546;SDS011;1283;47.982;7.834;2023-08-21T09:04:43;20.02;;;7.10;;
2546;SDS011;1283;47.982;7.834;2023-08-21T09:07:11;10.27;;;6.53;;
2546;SDS011;1283;47.982;7.834;2023-08-21T09:09:38;11.73;;;7.40;;
2546;SDS011;1283;47.982;7.834;2023-08-21T09:12:08;11.50;;;7.05;;
2546;SDS011;1283;47.982;7.834;2023-08-21T09:14:36;14.63;;;7.78;;
2546;SDS011;1283;47.982;7.834;2023-08-21T09:17:02;13.63;;;7.18;;
2546;SDS011;1283;47.982;7.834;2023-08-21T09:19:29;20.55;;;7.70;;
2546;SDS011;1283;47.982;7.834;2023-08-21T09:21:55;13.30;;;6.90;;
2546;SDS011;1283;47.982;7.834;2023-08-21T09:24:24;10.90;;;6.88;;
2546;SDS011;1283;47.982;7.834;2023-08-21T09:26:50;16.85;;;6.93;;
2546;SDS011;1283;47.982;7.834;2023-08-21T09:29:17;15.70;;;7.75;;
2546;SDS011;1283;47.982;7.834;2023-08-21T09:31:44;16.45;;;7.07;;
2546;SDS011;1283;47.982;7.834;2023-08-21T09:34:11;12.05;;;6.95;;
2546;SDS011;1283;47.982;7.834;2023-08-21T09:36:38;10.05;;;6.93;;
2546;SDS011;1283;47.982;7.834;2023-08-21T09:39:05;13.52;;;6.90;;
2546;SDS011;1283;47.982;7.834;2023-08-21T09:41:34;14.60;;;7.50;;
2546;SDS011;1283;47.982;7.834;2023-08-21T09:44:00;13.85;;;6.53;;
2546;SDS011;1283;47.982;7.834;2023-08-21T09:46:29;15.88;;;7.57;;
2546;SDS011;1283;47.982;7.834;2023-08-21T09:48:55;10.80;;;7.15;;
2546;SDS011;1283;47.982;7.834;2023-08-21T09:51:22;14.68;;;7.32;;
2546;SDS011;1283;47.982;7.834;2023-08-21T09:53:49;9.75;;;7.07;;
2546;SDS011;1283;47.982;7.834;2023-08-21T09:56:18;14.95;;;8.15;;
2546;SDS011;1283;47.982;7.834;2023-08-21T09:58:47;15.10;;;7.55;;
2546;SDS011;1283;47.982;7.834;2023-08-21T10:01:14;13.88;;;7.10;;
2546;SDS011;1283;47.982;7.834;2023-08-21T10:03:41;17.60;;;7.00;;
2546;SDS011;1283;47.982;7.834;2023-08-21T10:06:12;13.98;;;7.07;;
2546;SDS011;1283;47.982;7.834;2023-08-21T10:08:43;7.68;;;6.18;;
2546;SDS011;1283;47.982;7.834;2023-08-21T10:11:12;21.55;;;6.72;;
2546;SDS011;1283;47.982;7.834;2023-08-21T10:13:39;14.43;;;6.72;;
2546;SDS011;1283;47.982;7.834;2023-08-21T10:16:07;13.57;;;6.60;;
2546;SDS011;1283;47.982;7.834;2023-08-21T10:18:36;11.05;;;6.57;;
2546;SDS011;1283;47.982;7.834;2023-08-21T10:21:13;10.82;;;6.90;;
2546;SDS011;1283;47.982;7.834;2023-08-21T10:23:41;10.38;;;6.50;;
2546;SDS011;1283;47.982;7.834;2023-08-21T10:26:09;8.73;;;6.15;;
2546;SDS011;1283;47.982;7.834;2023-08-21T10:28:43;14.45;;;6.57;;
2546;SDS011;1283;47.982;7.834;2023-08-21T10:31:28;12.23;;;7.22;;
2546;SDS011;1283;47.982;7.834;2023-08-21T10:33:56;14.93;;;7.18;;
2546;SDS011;1283;47.982;7.834;2023-08-21T10:36:36;14.68;;;7.20;;
2546;SDS011;1283;47.982;7.834;2023-08-21T10:39:12;14.73;;;7.32;;
2546;SDS011;1283;47.982;7.834;2023-08-21T10:41:39;15.55;;;6.97;;
2546;SDS011;1283;47.982;7.834;2023-08-21T10:44:06;12.98;;;6.80;;
2546;SDS011;1283;47.982;7.834;2023-08-21T10:49:17;11.98;;;5.53;;
2546;SDS011;1283;47.982;7.834;2023-08-21T10:51:43;11.80;;;6.70;;
2546;SDS011;1283;47.982;7.834;2023-08-21T10:54:10;13.75;;;6.53;;
2546;SDS011;1283;47.982;7.834;2023-08-21T10:56:37;7.88;;;5.90;;
2546;SDS011;1283;47.982;7.834;2023-08-21T10:59:03;10.23;;;6.57;;
2546;SDS011;1283;47.982;7.834;2023-08-21T11:01:41;9.38;;;6.40;;
2546;SDS011;1283;47.982;7.834;2023-08-21T11:04:11;10.98;;;6.38;;
2546;SDS011;1283;47.982;7.834;2023-08-21T11:06:37;11.85;;;6.38;;
2546;SDS011;1283;47.982;7.834;2023-08-21T11:09:04;9.38;;;6.35;;
2546;SDS011;1283;47.982;7.834;2023-08-21T11:11:30;10.60;;;6.38;;
2546;SDS011;1283;47.982;7.834;2023-08-21T11:13:57;8.52;;;6.35;;
2546;SDS011;1283;47.982;7.834;2023-08-21T11:16:24;10.98;;;6.05;;
2546;SDS011;1283;47.982;7.834;2023-08-21T11:18:50;20.08;;;6.03;;
2546;SDS011;1283;47.982;7.834;2023-08-21T11:21:18;12.23;;;5.80;;
2546;SDS011;1283;47.982;7.834;2023-08-21T11:23:45;10.80;;;5.88;;
2546;SDS011;1283;47.982;7.834;2023-08-21T11:26:11;13.73;;;6.00;;
2546;SDS011;1283;47.982;7.834;2023-08-21T11:28:38;11.30;;;6.07;;
2546;SDS011;1283;47.982;7.834;2023-08-21T11:31:05;9.07;;;4.97;;
2546;SDS011;1283;47.982;7.834;2023-08-21T11:33:32;7.43;;;5.45;;
2546;SDS011;1283;47.982;7.834;2023-08-21T11:35:59;11.50;;;5.50;;
2546;SDS011;1283;47.982;7.834;2023-08-21T11:38:27;12.82;;;6.25;;
2546;SDS011;1283;47.982;7.834;2023-08-21T11:40:54;8.38;;;5.63;;
2546;SDS011;1283;47.982;7.834;2023-08-21T11:43:22;12.57;;;6.00;;
2546;SDS011;1283;47.982;7.834;2023-08-21T11:45:48;11.23;;;5.82;;
2546;SDS011;1283;47.982;7.834;2023-08-21T11:48:15;8.50;;;6.40;;
2546;SDS011;1283;47.982;7.834;2023-08-21T11:50:47;14.00;;;6.22;;
2546;SDS011;1283;47.982;7.834;2023-08-21T11:53:14;11.75;;;6.18;;
2546;SDS011;1283;47.982;7.834;2023-08-21T11:55:41;11.48;;;5.95;;
2546;SDS011;1283;47.982;7.834;2023-08-21T11:58:08;9.82;;;5.72;;
2546;SDS011;1283;47.982;7.834;2023-08-21T12:00:34;8.95;;;5.65;;
2546;SDS011;1283;47.982;7.834;2023-08-21T12:03:01;9.68;;;5.40;;
2546;SDS011;1283;47.982;7.834;2023-08-21T12:05:31;14.32;;;5.90;;
2546;SDS011;1283;47.982;7.834;2023-08-21T12:07:58;12.93;;;5.70;;
2546;SDS011;1283;47.982;7.834;2023-08-21T12:10:24;8.70;;;5.68;;
2546;SDS011;1283;47.982;7.834;2023-08-21T12:12:53;14.77;;;5.65;;
2546;SDS011;1283;47.982;7.834;2023-08-21T12:15:20;15.27;;;5.88;;
2546;SDS011;1283;47.982;7.834;2023-08-21T12:17:46;15.10;;;6.30;;
2546;SDS011;1283;47.982;7.834;2023-08-21T12:20:13;11.07;;;5.35;;
2546;SDS011;1283;47.982;7.834;2023-08-21T12:22:40;9.63;;;5.40;;
2546;SDS011;1283;47.982;7.834;2023-08-21T12:25:07;10.18;;;5.78;;
2546;SDS011;1283;47.982;7.834;2023-08-21T12:27:34;14.63;;;6.28;;
2546;SDS011;1283;47.982;7.834;2023-08-21T12:30:03;8.75;;;5.68;;
2546;SDS011;1283;47.982;7.834;2023-08-21T12:32:30;10.18;;;6.00;;
2546;SDS011;1283;47.982;7.834;2023-08-21T12:34:56;11.98;;;5.43;;
2546;SDS011;1283;47.982;7.834;2023-08-21T12:37:22;10.43;;;6.38;;
2546;SDS011;1283;47.982;7.834;2023-08-21T12:39:50;12.32;;;5.68;;
2546;SDS011;1283;47.982;7.834;2023-08-21T12:42:16;8.35;;;5.72;;
2546;SDS011;1283;47.982;7.834;2023-08-21T12:44:43;10.70;;;6.10;;
2546;SDS011;1283;47.982;7.834;2023-08-21T12:47:11;11.38;;;6.03;;
2546;SDS011;1283;47.982;7.834;2023-08-21T12:49:37;11.50;;;6.43;;
2546;SDS011;1283;47.982;7.834;2023-08-21T12:52:04;14.73;;;6.50;;
2546;SDS011;1283;47.982;7.834;2023-08-21T12:54:32;13.27;;;5.82;;
2546;SDS011;1283;47.982;7.834;2023-08-21T12:56:58;9.45;;;5.35;;
2546;SDS011;1283;47.982;7.834;2023-08-21T12:59:24;19.70;;;5.95;;
2546;SDS011;1283;47.982;7.834;2023-08-21T13:01:51;9.95;;;6.00;;
2546;SDS011;1283;47.982;7.834;2023-08-21T13:04:19;8.95;;;5.90;;
2546;SDS011;1283;47.982;7.834;2023-08-21T13:06:45;13.07;;;6.30;;
2546;SDS011;1283;47.982;7.834;2023-08-21T13:09:11;14.32;;;5.53;;
2546;SDS011;1283;47.982;7.834;2023-08-21T13:11:38;11.15;;;5.72;;
2546;SDS011;1283;47.982;7.834;2023-08-21T13:14:05;10.50;;;5.50;;
2546;SDS011;1283;47.982;7.834;2023-08-21T13:16:31;11.65;;;6.28;;
2546;SDS011;1283;47.982;7.834;2023-08-21T13:18:57;13.82;;;5.95;;
2546;SDS011;1283;47.982;7.834;2023-08-21T13:21:25;16.13;;;6.10;;
2546;SDS011;1283;47.982;7.834;2023-08-21T13:23:52;12.63;;;6.15;;
2546;SDS011;1283;47.982;7.834;2023-08-21T13:26:19;11.25;;;5.72;;
2546;SDS011;1283;47.982;7.834;2023-08-21T13:28:45;10.90;;;5.65;;
2546;SDS011;1283;47.982;7.834;2023-08-21T13:31:12;11.80;;;5.72;;
2546;SDS011;1283;47.982;7.834;2023-08-21T13:33:44;11.63;;;5.93;;
2546;SDS011;1283;47.982;7.834;2023-08-21T13:36:11;12.43;;;5.65;;
2546;SDS011;1283;47.982;7.834;2023-08-21T13:38:39;11.38;;;5.72;;
2546;SDS011;1283;47.982;7.834;2023-08-21T13:41:06;10.48;;;5.32;;
2546;SDS011;1283;47.982;7.834;2023-08-21T13:43:32;17.90;;;5.85;;
2546;SDS011;1283;47.982;7.834;2023-08-21T13:45:59;12.90;;;5.65;;
2546;SDS011;1283;47.982;7.834;2023-08-21T13:48:26;15.80;;;6.05;;
2546;SDS011;1283;47.982;7.834;2023-08-21T13:50:52;10.45;;;5.40;;
2546;SDS011;1283;47.982;7.834;2023-08-21T13:53:19;14.15;;;6.22;;
2546;SDS011;1283;47.982;7.834;2023-08-21T13:55:46;13.18;;;5.85;;
2546;SDS011;1283;47.982;7.834;2023-08-21T13:58:13;10.70;;;5.72;;
2546;SDS011;1283;47.982;7.834;2023-08-21T14:00:40;10.52;;;5.72;;
2546;SDS011;1283;47.982;7.834;2023-08-21T14:03:06;10.95;;;5.30;;
2546;SDS011;1283;47.982;7.834;2023-08-21T14:05:32;15.90;;;5.57;;
2546;SDS011;1283;47.982;7.834;2023-08-21T14:07:59;11.07;;;5.15;;
2546;SDS011;1283;47.982;7.834;2023-08-21T14:10:26;12.18;;;6.00;;
2546;SDS011;1283;47.982;7.834;2023-08-21T14:12:54;15.10;;;5.15;;
2546;SDS011;1283;47.982;7.834;2023-08-21T14:15:21;14.05;;;6.03;;
2546;SDS011;1283;47.982;7.834;2023-08-21T14:17:48;12.25;;;5.47;;
2546;SDS011;1283;47.982;7.834;2023-08-21T14:20:15;8.05;;;4.95;;
2546;SDS011;1283;47.982;7.834;2023-08-21T14:22:42;18.40;;;5.72;;
2546;SDS011;1283;47.982;7.834;2023-08-21T14:25:08;11.07;;;5.20;;
2546;SDS011;1283;47.982;7.834;2023-08-21T14:27:35;16.88;;;4.93;;
2546;SDS011;1283;47.982;7.834;2023-08-21T14:30:03;11.65;;;5.05;;
2546;SDS011;1283;47.982;7.834;2023-08-21T14:32:30;10.98;;;4.80;;
2546;SDS011;1283;47.982;7.834;2023-08-21T14:34:57;12.40;;;5.10;;
2546;SDS011;1283;47.982;7.834;2023-08-21T14:37:23;11.77;;;4.25;;
2546;SDS011;1283;47.982;7.834;2023-08-21T14:39:50;9.32;;;4.75;;
2546;SDS011;1283;47.982;7.834;2023-08-21T14:42:16;9.10;;;5.00;;
2546;SDS011;1283;47.982;7.834;2023-08-21T14:44:44;11.73;;;4.75;;
2546;SDS011;1283;47.982;7.834;2023-08-21T14:47:11;8.65;;;5.10;;
2546;SDS011;1283;47.982;7.834;2023-08-21T14:49:38;17.60;;;5.03;;
2546;SDS011;1283;47.982;7.834;2023-08-21T14:52:04;13.25;;;4.63;;
2546;SDS011;1283;47.982;7.834;2023-08-21T14:54:32;10.25;;;4.90;;
2546;SDS011;1283;47.982;7.834;2023-08-21T14:56:59;10.30;;;5.32;;
2546;SDS011;1283;47.982;7.834;2023-08-21T14:59:25;10.05;;;4.63;;
2546;SDS011;1283;47.982;7.834;2023-08-21T15:01:52;14.80;;;4.68;;